Private Wetterstation Sandau
Wetterdaten: Montag, 26.03.2012
Datum Zeit Temp. A. Feuchte A. Luftdruck Regen Wind Richtung Richtung Taupunkt Windchill
26.03.2012 00:02 8,1 C 71 % 1034,3 hPa 0,0 l/m 2,5 km/h (1 Bft) O 90 3,2 C 8,1 C
26.03.2012 00:07 8,1 C 72 % 1034,1 hPa 0,0 l/m 5,4 km/h (1 Bft) O-NO 67 3,4 C 7,5 C
26.03.2012 00:12 7,9 C 72 % 1034,2 hPa 0,0 l/m 2,5 km/h (1 Bft) O-NO 67 3,2 C 7,9 C
26.03.2012 00:17 7,9 C 72 % 1034,3 hPa 0,0 l/m 0,0 km/h (0 Bft) O-NO 67 3,2 C 7,9 C
26.03.2012 00:22 7,9 C 73 % 1034,4 hPa 0,0 l/m 1,4 km/h (1 Bft) O-NO 67 3,4 C 7,9 C
26.03.2012 00:27 7,8 C 73 % 1034,4 hPa 0,0 l/m 2,9 km/h (1 Bft) O-NO 67 3,3 C 7,8 C
26.03.2012 00:32 7,8 C 73 % 1034,3 hPa 0,0 l/m 3,2 km/h (1 Bft) O-NO 67 3,3 C 7,8 C
26.03.2012 00:37 7,8 C 74 % 1034,3 hPa 0,0 l/m 4,0 km/h (1 Bft) O 90 3,5 C 7,8 C
26.03.2012 00:42 7,7 C 74 % 1034,5 hPa 0,0 l/m 2,2 km/h (1 Bft) O 90 3,4 C 7,7 C
26.03.2012 00:47 7,6 C 74 % 1034,3 hPa 0,0 l/m 0,0 km/h (0 Bft) O 90 3,3 C 7,6 C
26.03.2012 00:52 7,6 C 74 % 1034,4 hPa 0,0 l/m 2,2 km/h (1 Bft) O-SO 112 3,3 C 7,6 C
26.03.2012 00:57 7,5 C 75 % 1034,5 hPa 0,0 l/m 0,0 km/h (0 Bft) O-SO 112 3,4 C 7,5 C
26.03.2012 01:02 7,4 C 75 % 1034,4 hPa 0,0 l/m 2,5 km/h (1 Bft) O-SO 112 3,3 C 7,4 C
26.03.2012 01:07 7,4 C 75 % 1034,5 hPa 0,0 l/m 0,0 km/h (0 Bft) O-SO 112 3,3 C 7,4 C
26.03.2012 01:12 7,3 C 75 % 1034,6 hPa 0,0 l/m 0,0 km/h (0 Bft) O-SO 112 3,2 C 7,3 C
26.03.2012 01:17 7,2 C 75 % 1034,6 hPa 0,0 l/m 0,0 km/h (0 Bft) O-SO 112 3,1 C 7,2 C
26.03.2012 01:22 7,1 C 75 % 1034,7 hPa 0,0 l/m 0,0 km/h (0 Bft) O-SO 112 3,0 C 7,1 C
26.03.2012 01:27 7,0 C 75 % 1034,7 hPa 0,0 l/m 0,0 km/h (0 Bft) O-SO 112 2,9 C 7,0 C
26.03.2012 01:32 6,9 C 75 % 1034,8 hPa 0,0 l/m 0,0 km/h (0 Bft) O-SO 112 2,8 C 6,9 C
26.03.2012 01:37 6,9 C 75 % 1034,7 hPa 0,0 l/m 0,0 km/h (0 Bft) O-SO 112 2,8 C 6,9 C
26.03.2012 01:42 6,8 C 75 % 1034,8 hPa 0,0 l/m 0,0 km/h (0 Bft) O-SO 112 2,7 C 6,8 C
26.03.2012 01:47 6,8 C 75 % 1034,8 hPa 0,0 l/m 0,0 km/h (0 Bft) O-SO 112 2,7 C 6,8 C
26.03.2012 01:52 6,7 C 75 % 1034,7 hPa 0,0 l/m 1,4 km/h (1 Bft) O-SO 112 2,6 C 6,7 C
26.03.2012 01:57 6,6 C 75 % 1034,7 hPa 0,0 l/m 0,0 km/h (0 Bft) O-SO 112 2,5 C 6,6 C
26.03.2012 02:02 6,5 C 75 % 1034,8 hPa 0,0 l/m 0,0 km/h (0 Bft) O-SO 112 2,4 C 6,5 C
26.03.2012 02:07 6,4 C 76 % 1034,9 hPa 0,0 l/m 0,0 km/h (0 Bft) O-SO 112 2,5 C 6,4 C
26.03.2012 02:12 6,4 C 76 % 1034,8 hPa 0,0 l/m 0,0 km/h (0 Bft) O-SO 112 2,5 C 6,4 C
26.03.2012 02:17 6,4 C 76 % 1034,9 hPa 0,0 l/m 0,0 km/h (0 Bft) O-SO 112 2,5 C 6,4 C
26.03.2012 02:22 6,4 C 76 % 1035,0 hPa 0,0 l/m 0,0 km/h (0 Bft) O-SO 112 2,5 C 6,4 C
26.03.2012 02:27 6,3 C 76 % 1035,0 hPa 0,0 l/m 0,0 km/h (0 Bft) O-SO 112 2,4 C 6,3 C
26.03.2012 02:32 6,2 C 76 % 1035,0 hPa 0,0 l/m 0,0 km/h (0 Bft) O-SO 112 2,3 C 6,2 C
26.03.2012 02:37 6,2 C 76 % 1034,8 hPa 0,0 l/m 0,0 km/h (0 Bft) O-SO 112 2,3 C 6,2 C
26.03.2012 02:42 6,1 C 76 % 1034,9 hPa 0,0 l/m 0,0 km/h (0 Bft) O-SO 112 2,2 C 6,1 C
26.03.2012 02:47 6,1 C 76 % 1034,8 hPa 0,0 l/m 0,0 km/h (0 Bft) O-SO 112 2,2 C 6,1 C
26.03.2012 02:52 6,0 C 76 % 1034,8 hPa 0,0 l/m 0,0 km/h (0 Bft) O-SO 112 2,1 C 6,0 C
26.03.2012 02:57 5,9 C 76 % 1034,8 hPa 0,0 l/m 0,0 km/h (0 Bft) O-SO 112 2,0 C 5,9 C
26.03.2012 03:02 5,9 C 77 % 1034,8 hPa 0,0 l/m 0,0 km/h (0 Bft) O-SO 112 2,2 C 5,9 C
26.03.2012 03:07 5,8 C 77 % 1034,9 hPa 0,0 l/m 0,0 km/h (0 Bft) O-SO 112 2,1 C 5,8 C
26.03.2012 03:12 5,8 C 77 % 1035,1 hPa 0,0 l/m 0,0 km/h (0 Bft) O-SO 112 2,1 C 5,8 C
26.03.2012 03:17 5,6 C 77 % 1035,2 hPa 0,0 l/m 0,0 km/h (0 Bft) O-SO 112 1,9 C 5,6 C
26.03.2012 03:22 5,6 C 77 % 1035,1 hPa 0,0 l/m 0,0 km/h (0 Bft) O-SO 112 1,9 C 5,6 C
26.03.2012 03:27 5,6 C 77 % 1035,1 hPa 0,0 l/m 0,0 km/h (0 Bft) O-SO 112 1,9 C 5,6 C
26.03.2012 03:32 5,6 C 77 % 1035,0 hPa 0,0 l/m 0,0 km/h (0 Bft) O-SO 112 1,9 C 5,6 C
26.03.2012 03:37 5,4 C 78 % 1035,1 hPa 0,0 l/m 0,0 km/h (0 Bft) O-SO 112 1,9 C 5,4 C
26.03.2012 03:42 5,3 C 78 % 1035,1 hPa 0,0 l/m 0,0 km/h (0 Bft) O-SO 112 1,8 C 5,3 C
26.03.2012 03:47 5,2 C 79 % 1035,1 hPa 0,0 l/m 0,0 km/h (0 Bft) O-SO 112 1,9 C 5,2 C
26.03.2012 03:52 5,1 C 79 % 1035,2 hPa 0,0 l/m 1,1 km/h (1 Bft) O-SO 112 1,8 C 5,1 C
26.03.2012 03:57 5,2 C 79 % 1035,0 hPa 0,0 l/m 0,0 km/h (0 Bft) O-SO 112 1,9 C 5,2 C
26.03.2012 04:02 5,2 C 79 % 1034,9 hPa 0,0 l/m 0,0 km/h (0 Bft) O-SO 112 1,9 C 5,2 C
26.03.2012 04:07 5,1 C 80 % 1034,8 hPa 0,0 l/m 0,0 km/h (0 Bft) O-SO 112 1,9 C 5,1 C
26.03.2012 04:12 5,1 C 80 % 1034,8 hPa 0,0 l/m 0,0 km/h (0 Bft) O-SO 112 1,9 C 5,1 C
26.03.2012 04:17 4,9 C 80 % 1034,7 hPa 0,0 l/m 0,0 km/h (0 Bft) O-SO 112 1,7 C 4,9 C
26.03.2012 04:22 4,9 C 81 % 1034,7 hPa 0,0 l/m 0,0 km/h (0 Bft) O-SO 112 1,9 C 4,9 C
26.03.2012 04:27 4,9 C 81 % 1034,5 hPa 0,0 l/m 0,0 km/h (0 Bft) O-SO 112 1,9 C 4,9 C
26.03.2012 04:32 4,9 C 81 % 1034,2 hPa 0,0 l/m 0,0 km/h (0 Bft) O-SO 112 1,9 C 4,9 C
26.03.2012 04:37 4,9 C 81 % 1034,4 hPa 0,0 l/m 2,2 km/h (1 Bft) O-SO 112 1,9 C 4,9 C
26.03.2012 04:42 4,9 C 81 % 1034,2 hPa 0,0 l/m 0,0 km/h (0 Bft) O-SO 112 1,9 C 4,9 C
26.03.2012 04:47 4,8 C 81 % 1034,1 hPa 0,0 l/m 2,2 km/h (1 Bft) O-SO 112 1,8 C 4,8 C
26.03.2012 04:52 4,7 C 81 % 1034,1 hPa 0,0 l/m 0,0 km/h (0 Bft) O-SO 112 1,7 C 4,7 C
26.03.2012 04:57 4,5 C 81 % 1034,3 hPa 0,0 l/m 0,0 km/h (0 Bft) O-SO 112 1,5 C 4,5 C
26.03.2012 05:02 4,4 C 81 % 1034,4 hPa 0,0 l/m 0,0 km/h (0 Bft) O-SO 112 1,4 C 4,4 C
26.03.2012 05:07 4,2 C 81 % 1034,6 hPa 0,0 l/m 2,5 km/h (1 Bft) O-SO 112 1,2 C 4,2 C
26.03.2012 05:12 3,9 C 81 % 1034,8 hPa 0,0 l/m 1,4 km/h (1 Bft) O-SO 112 0,9 C 3,9 C
26.03.2012 05:17 3,6 C 81 % 1034,8 hPa 0,0 l/m 1,8 km/h (1 Bft) O-SO 112 0,7 C 3,6 C
26.03.2012 05:22 3,4 C 82 % 1034,8 hPa 0,0 l/m 0,0 km/h (0 Bft) O-SO 112 0,6 C 3,4 C
26.03.2012 05:27 3,4 C 83 % 1035,0 hPa 0,0 l/m 0,0 km/h (0 Bft) O-SO 112 0,8 C 3,4 C
26.03.2012 05:32 3,4 C 83 % 1034,9 hPa 0,0 l/m 2,5 km/h (1 Bft) O-SO 112 0,8 C 3,4 C
26.03.2012 05:37 3,4 C 83 % 1035,0 hPa 0,0 l/m 0,0 km/h (0 Bft) O-SO 112 0,8 C 3,4 C
26.03.2012 05:42 3,6 C 84 % 1034,9 hPa 0,0 l/m 0,0 km/h (0 Bft) O-SO 112 1,2 C 3,6 C
26.03.2012 05:47 3,8 C 83 % 1035,0 hPa 0,0 l/m 1,4 km/h (1 Bft) O-SO 112 1,2 C 3,8 C
26.03.2012 05:52 3,8 C 83 % 1034,8 hPa 0,0 l/m 0,0 km/h (0 Bft) O-SO 112 1,2 C 3,8 C
26.03.2012 05:57 3,9 C 83 % 1034,8 hPa 0,0 l/m 0,0 km/h (0 Bft) O-SO 112 1,3 C 3,9 C
26.03.2012 06:02 3,9 C 83 % 1034,8 hPa 0,0 l/m 0,0 km/h (0 Bft) O-SO 112 1,3 C 3,9 C
26.03.2012 06:07 3,9 C 83 % 1034,7 hPa 0,0 l/m 0,0 km/h (0 Bft) O-SO 112 1,3 C 3,9 C
26.03.2012 06:12 4,0 C 83 % 1034,8 hPa 0,0 l/m 0,0 km/h (0 Bft) O-SO 112 1,4 C 4,0 C
26.03.2012 06:17 3,9 C 83 % 1035,0 hPa 0,0 l/m 0,0 km/h (0 Bft) O-SO 112 1,3 C 3,9 C
26.03.2012 06:22 3,6 C 83 % 1035,1 hPa 0,0 l/m 2,2 km/h (1 Bft) O-SO 112 1,0 C 3,6 C
26.03.2012 06:27 3,4 C 83 % 1035,0 hPa 0,0 l/m 0,0 km/h (0 Bft) O-SO 112 0,8 C 3,4 C
26.03.2012 06:32 3,3 C 84 % 1035,0 hPa 0,0 l/m 0,0 km/h (0 Bft) O-SO 112 0,9 C 3,3 C
26.03.2012 06:37 3,2 C 84 % 1034,9 hPa 0,0 l/m 0,0 km/h (0 Bft) O-SO 112 0,8 C 3,2 C
26.03.2012 06:42 3,1 C 84 % 1035,0 hPa 0,0 l/m 1,1 km/h (1 Bft) O-SO 112 0,7 C 3,1 C
26.03.2012 06:47 2,8 C 84 % 1035,0 hPa 0,0 l/m 2,2 km/h (1 Bft) O-SO 112 0,4 C 2,8 C
26.03.2012 06:52 2,5 C 84 % 1034,9 hPa 0,0 l/m 2,2 km/h (1 Bft) O-SO 112 0,1 C 2,5 C
26.03.2012 06:57 2,4 C 83 % 1035,1 hPa 0,0 l/m 1,4 km/h (1 Bft) O-SO 112 -0,2 C 2,4 C
26.03.2012 07:02 2,1 C 83 % 1035,2 hPa 0,0 l/m 0,0 km/h (0 Bft) O-SO 112 -0,5 C 2,1 C
26.03.2012 07:07 1,9 C 83 % 1035,3 hPa 0,0 l/m 2,5 km/h (1 Bft) O-SO 112 -0,7 C 1,9 C
26.03.2012 07:12 1,9 C 83 % 1035,3 hPa 0,0 l/m 3,6 km/h (1 Bft) O-SO 112 -0,7 C 1,9 C
26.03.2012 07:17 1,9 C 84 % 1035,4 hPa 0,0 l/m 0,0 km/h (0 Bft) O-SO 112 -0,5 C 1,9 C
26.03.2012 07:22 1,9 C 84 % 1035,6 hPa 0,0 l/m 0,0 km/h (0 Bft) O-SO 112 -0,5 C 1,9 C
26.03.2012 07:27 1,9 C 84 % 1035,4 hPa 0,0 l/m 2,2 km/h (1 Bft) O-SO 112 -0,5 C 1,9 C
26.03.2012 07:32 1,9 C 84 % 1035,4 hPa 0,0 l/m 4,3 km/h (1 Bft) O-SO 112 -0,5 C 1,9 C
26.03.2012 07:37 1,8 C 85 % 1035,5 hPa 0,0 l/m 2,9 km/h (1 Bft) O-SO 112 -0,4 C 1,8 C
26.03.2012 07:42 1,7 C 85 % 1035,5 hPa 0,0 l/m 1,8 km/h (1 Bft) O-SO 112 -0,5 C 1,7 C
26.03.2012 07:47 1,6 C 85 % 1035,5 hPa 0,0 l/m 2,5 km/h (1 Bft) O-SO 112 -0,6 C 1,6 C
26.03.2012 07:52 1,5 C 85 % 1035,5 hPa 0,0 l/m 2,2 km/h (1 Bft) O-SO 112 -0,7 C 1,5 C
26.03.2012 07:57 1,5 C 85 % 1035,7 hPa 0,0 l/m 3,2 km/h (1 Bft) O-SO 112 -0,7 C 1,5 C
26.03.2012 08:02 1,4 C 86 % 1035,7 hPa 0,0 l/m 0,0 km/h (0 Bft) O-SO 112 -0,7 C 1,4 C
26.03.2012 08:07 1,5 C 86 % 1035,8 hPa 0,0 l/m 5,0 km/h (1 Bft) O-SO 112 -0,6 C 0,1 C
26.03.2012 08:12 1,6 C 87 % 1035,8 hPa 0,0 l/m 3,2 km/h (1 Bft) O-SO 112 -0,3 C 1,6 C
26.03.2012 08:17 1,6 C 87 % 1035,7 hPa 0,0 l/m 3,2 km/h (1 Bft) O-SO 112 -0,3 C 1,6 C
26.03.2012 08:22 1,8 C 87 % 1035,8 hPa 0,0 l/m 2,9 km/h (1 Bft) SO 135 -0,1 C 1,8 C
26.03.2012 08:27 1,8 C 87 % 1036,0 hPa 0,0 l/m 0,0 km/h (0 Bft) O-SO 112 -0,1 C 1,8 C
26.03.2012 08:32 1,9 C 87 % 1035,9 hPa 0,0 l/m 2,5 km/h (1 Bft) SO 135 -0,0 C 1,9 C
26.03.2012 08:37 2,1 C 87 % 1035,9 hPa 0,0 l/m 3,2 km/h (1 Bft) SO 135 0,2 C 2,1 C
26.03.2012 08:42 2,4 C 87 % 1035,8 hPa 0,0 l/m 0,0 km/h (0 Bft) SO 135 0,5 C 2,4 C
26.03.2012 08:47 2,5 C 87 % 1035,8 hPa 0,0 l/m 3,2 km/h (1 Bft) SO 135 0,6 C 2,5 C
26.03.2012 08:52 2,7 C 87 % 1035,9 hPa 0,0 l/m 1,1 km/h (1 Bft) O-SO 112 0,8 C 2,7 C
26.03.2012 08:57 2,8 C 87 % 1036,0 hPa 0,0 l/m 0,0 km/h (0 Bft) SO 135 0,9 C 2,8 C
26.03.2012 09:02 2,9 C 88 % 1035,8 hPa 0,0 l/m 4,0 km/h (1 Bft) SO 135 1,1 C 2,9 C
26.03.2012 09:07 3,1 C 88 % 1035,9 hPa 0,0 l/m 1,8 km/h (1 Bft) SO 135 1,3 C 3,1 C
26.03.2012 09:12 3,3 C 88 % 1035,9 hPa 0,0 l/m 3,6 km/h (1 Bft) O-SO 112 1,5 C 3,3 C
26.03.2012 09:17 3,4 C 88 % 1036,1 hPa 0,0 l/m 3,6 km/h (1 Bft) O-SO 112 1,6 C 3,4 C
26.03.2012 09:22 3,5 C 88 % 1036,0 hPa 0,0 l/m 5,8 km/h (2 Bft) O-SO 112 1,7 C 2,1 C
26.03.2012 09:27 3,8 C 88 % 1036,1 hPa 0,0 l/m 0,0 km/h (0 Bft) SO 135 2,0 C 3,8 C
26.03.2012 09:32 4,0 C 88 % 1036,1 hPa 0,0 l/m 2,9 km/h (1 Bft) O-SO 112 2,2 C 4,0 C
26.03.2012 09:37 4,3 C 88 % 1036,2 hPa 0,0 l/m 2,2 km/h (1 Bft) O-SO 112 2,5 C 4,3 C
26.03.2012 09:42 4,5 C 88 % 1036,0 hPa 0,0 l/m 5,0 km/h (1 Bft) O-SO 112 2,7 C 3,5 C
26.03.2012 09:47 4,8 C 88 % 1036,1 hPa 0,0 l/m 0,0 km/h (0 Bft) SO 135 3,0 C 4,8 C
26.03.2012 09:52 5,1 C 88 % 1036,1 hPa 0,0 l/m 1,1 km/h (1 Bft) SO 135 3,3 C 5,1 C
26.03.2012 09:57 5,5 C 89 % 1036,2 hPa 0,0 l/m 0,0 km/h (0 Bft) SO 135 3,8 C 5,5 C
26.03.2012 10:02 5,8 C 89 % 1036,2 hPa 0,0 l/m 2,5 km/h (1 Bft) O-SO 112 4,1 C 5,8 C
26.03.2012 10:07 6,1 C 88 % 1036,2 hPa 0,0 l/m 4,0 km/h (1 Bft) O 90 4,3 C 6,1 C
26.03.2012 10:12 6,5 C 88 % 1036,3 hPa 0,0 l/m 1,8 km/h (1 Bft) O 90 4,7 C 6,5 C
26.03.2012 10:17 6,8 C 88 % 1036,5 hPa 0,0 l/m 3,2 km/h (1 Bft) O-SO 112 5,0 C 6,8 C
26.03.2012 10:22 7,1 C 88 % 1036,5 hPa 0,0 l/m 4,0 km/h (1 Bft) O-NO 67 5,2 C 7,1 C
26.03.2012 10:27 7,3 C 87 % 1036,3 hPa 0,0 l/m 1,4 km/h (1 Bft) O-SO 112 5,3 C 7,3 C
26.03.2012 10:32 7,8 C 86 % 1036,4 hPa 0,0 l/m 3,6 km/h (1 Bft) O-SO 112 5,6 C 7,8 C
26.03.2012 10:37 7,9 C 86 % 1036,3 hPa 0,0 l/m 5,8 km/h (2 Bft) O-SO 112 5,7 C 7,1 C
26.03.2012 10:42 8,2 C 85 % 1036,4 hPa 0,0 l/m 1,4 km/h (1 Bft) O-SO 112 5,8 C 8,2 C
26.03.2012 10:47 8,4 C 84 % 1036,4 hPa 0,0 l/m 2,9 km/h (1 Bft) O 90 5,9 C 8,4 C
26.03.2012 10:52 8,6 C 84 % 1036,4 hPa 0,0 l/m 0,0 km/h (0 Bft) O-SO 112 6,1 C 8,6 C
26.03.2012 10:57 8,9 C 84 % 1036,4 hPa 0,0 l/m 0,0 km/h (0 Bft) S-SO 157 6,3 C 8,9 C
26.03.2012 11:02 9,1 C 83 % 1036,4 hPa 0,0 l/m 2,5 km/h (1 Bft) S-SO 157 6,4 C 9,1 C
26.03.2012 11:07 9,3 C 82 % 1036,4 hPa 0,0 l/m 2,9 km/h (1 Bft) S-SW 202 6,4 C 9,3 C
26.03.2012 11:12 9,5 C 81 % 1036,3 hPa 0,0 l/m 4,7 km/h (1 Bft) W 270 6,4 C 9,3 C
26.03.2012 11:17 9,7 C 80 % 1036,4 hPa 0,0 l/m 3,2 km/h (1 Bft) SW 225 6,4 C 9,7 C
26.03.2012 11:22 9,9 C 79 % 1036,3 hPa 0,0 l/m 2,9 km/h (1 Bft) S 180 6,4 C 9,9 C
26.03.2012 11:27 10,2 C 78 % 1036,3 hPa 0,0 l/m 8,3 km/h (2 Bft) W 270 6,5 C 10,2 C
26.03.2012 11:32 10,4 C 77 % 1036,3 hPa 0,0 l/m 4,3 km/h (1 Bft) S 180 6,5 C 10,4 C
26.03.2012 11:37 10,4 C 77 % 1036,5 hPa 0,0 l/m 8,3 km/h (2 Bft) S-SW 202 6,5 C 10,4 C
26.03.2012 11:42 10,6 C 76 % 1036,2 hPa 0,0 l/m 8,3 km/h (2 Bft) S-SW 202 6,5 C 10,6 C
26.03.2012 11:47 10,8 C 75 % 1036,2 hPa 0,0 l/m 9,4 km/h (2 Bft) S-SO 157 6,5 C 10,8 C
26.03.2012 11:52 10,9 C 75 % 1036,2 hPa 0,0 l/m 4,0 km/h (1 Bft) S-SW 202 6,6 C 10,9 C
26.03.2012 11:57 11,1 C 74 % 1036,2 hPa 0,0 l/m 5,8 km/h (2 Bft) S-SW 202 6,6 C 11,1 C
26.03.2012 12:02 11,2 C 73 % 1036,2 hPa 0,0 l/m 6,1 km/h (2 Bft) SW 225 6,5 C 11,2 C
26.03.2012 12:07 11,3 C 73 % 1036,1 hPa 0,0 l/m 6,1 km/h (2 Bft) S-SO 157 6,6 C 11,3 C
26.03.2012 12:12 11,4 C 72 % 1036,1 hPa 0,0 l/m 3,2 km/h (1 Bft) SO 135 6,5 C 11,4 C
26.03.2012 12:17 11,5 C 72 % 1036,1 hPa 0,0 l/m 6,5 km/h (2 Bft) W-SW 247 6,6 C 11,5 C
26.03.2012 12:22 11,8 C 71 % 1036,2 hPa 0,0 l/m 9,4 km/h (2 Bft) W-SW 247 6,7 C 11,8 C
26.03.2012 12:27 11,9 C 71 % 1036,2 hPa 0,0 l/m 5,4 km/h (1 Bft) S-SO 157 6,8 C 11,9 C
26.03.2012 12:32 11,9 C 71 % 1036,2 hPa 0,0 l/m 2,9 km/h (1 Bft) NW 315 6,8 C 11,9 C
26.03.2012 12:37 12,1 C 70 % 1035,9 hPa 0,0 l/m 5,4 km/h (1 Bft) S-SW 202 6,8 C 12,1 C
26.03.2012 12:42 12,1 C 69 % 1035,9 hPa 0,0 l/m 6,1 km/h (2 Bft) W-NW 292 6,6 C 12,1 C
26.03.2012 12:47 12,2 C 69 % 1035,8 hPa 0,0 l/m 6,1 km/h (2 Bft) W-SW 247 6,7 C 12,2 C
26.03.2012 12:52 12,3 C 68 % 1035,8 hPa 0,0 l/m 9,7 km/h (2 Bft) W-SW 247 6,6 C 12,3 C
26.03.2012 12:57 12,4 C 68 % 1035,6 hPa 0,0 l/m 0,0 km/h (0 Bft) SW 225 6,7 C 12,4 C
26.03.2012 13:02 12,5 C 67 % 1035,7 hPa 0,0 l/m 2,9 km/h (1 Bft) W-SW 247 6,5 C 12,5 C
26.03.2012 13:07 12,5 C 67 % 1035,5 hPa 0,0 l/m 5,0 km/h (1 Bft) SW 225 6,5 C 12,5 C
26.03.2012 13:12 12,7 C 67 % 1035,6 hPa 0,0 l/m 4,7 km/h (1 Bft) S 180 6,7 C 12,7 C
26.03.2012 13:17 12,9 C 66 % 1035,6 hPa 0,0 l/m 11,9 km/h (2 Bft) SW 225 6,7 C 12,9 C
26.03.2012 13:22 13,0 C 66 % 1035,5 hPa 0,0 l/m 5,0 km/h (1 Bft) W 270 6,8 C 13,0 C
26.03.2012 13:27 13,2 C 66 % 1035,5 hPa 0,0 l/m 7,2 km/h (2 Bft) W 270 7,0 C 13,2 C
26.03.2012 13:32 13,3 C 64 % 1035,5 hPa 0,0 l/m 2,5 km/h (1 Bft) W-NW 292 6,6 C 13,3 C
26.03.2012 13:37 13,4 C 63 % 1035,4 hPa 0,0 l/m 1,4 km/h (1 Bft) S-SW 202 6,5 C 13,4 C
26.03.2012 13:42 13,5 C 62 % 1035,5 hPa 0,0 l/m 6,5 km/h (2 Bft) W 270 6,4 C 13,5 C
26.03.2012 13:47 13,6 C 62 % 1035,4 hPa 0,0 l/m 0,0 km/h (0 Bft) O-NO 67 6,5 C 13,6 C
26.03.2012 13:52 13,8 C 61 % 1035,4 hPa 0,0 l/m 4,0 km/h (1 Bft) NW 315 6,4 C 13,8 C
26.03.2012 13:57 13,9 C 60 % 1035,4 hPa 0,0 l/m 9,0 km/h (2 Bft) W-NW 292 6,3 C 13,9 C
26.03.2012 14:02 14,1 C 59 % 1035,4 hPa 0,0 l/m 4,0 km/h (1 Bft) W 270 6,2 C 14,1 C
26.03.2012 14:07 14,2 C 59 % 1035,4 hPa 0,0 l/m 0,0 km/h (0 Bft) W-SW 247 6,3 C 14,2 C
26.03.2012 14:12 14,4 C 58 % 1035,4 hPa 0,0 l/m 4,3 km/h (1 Bft) W-SW 247 6,2 C 14,4 C
26.03.2012 14:17 14,5 C 58 % 1035,3 hPa 0,0 l/m 2,9 km/h (1 Bft) W 270 6,3 C 14,5 C
26.03.2012 14:22 14,8 C 57 % 1035,3 hPa 0,0 l/m 6,5 km/h (2 Bft) N 360 6,4 C 14,8 C
26.03.2012 14:27 14,9 C 56 % 1035,1 hPa 0,0 l/m 4,0 km/h (1 Bft) W 270 6,2 C 14,9 C
26.03.2012 14:32 14,9 C 55 % 1034,9 hPa 0,0 l/m 4,0 km/h (1 Bft) N-NW 337 5,9 C 14,9 C
26.03.2012 14:37 14,9 C 52 % 1035,0 hPa 0,0 l/m 2,5 km/h (1 Bft) N-NW 337 5,1 C 14,9 C
26.03.2012 14:42 15,0 C 53 % 1034,9 hPa 0,0 l/m 4,7 km/h (1 Bft) W 270 5,5 C 15,0 C
26.03.2012 14:47 15,2 C 53 % 1034,8 hPa 0,0 l/m 7,6 km/h (2 Bft) W 270 5,7 C 15,2 C
26.03.2012 14:52 15,3 C 51 % 1034,8 hPa 0,0 l/m 10,1 km/h (2 Bft) W 270 5,2 C 15,3 C
26.03.2012 14:57 15,4 C 51 % 1034,8 hPa 0,0 l/m 3,6 km/h (1 Bft) N 360 5,3 C 15,4 C
26.03.2012 15:02 15,6 C 50 % 1034,8 hPa 0,0 l/m 5,4 km/h (1 Bft) W 270 5,2 C 15,6 C
26.03.2012 15:07 15,6 C 50 % 1034,7 hPa 0,0 l/m 0,0 km/h (0 Bft) O-SO 112 5,2 C 15,6 C
26.03.2012 15:12 15,9 C 48 % 1034,7 hPa 0,0 l/m 5,4 km/h (1 Bft) NO 45 4,9 C 15,9 C
26.03.2012 15:17 15,8 C 43 % 1034,6 hPa 0,0 l/m 5,8 km/h (2 Bft) N 360 3,3 C 15,8 C
26.03.2012 15:22 15,8 C 42 % 1034,4 hPa 0,0 l/m 4,3 km/h (1 Bft) N-NO 22 2,9 C 15,8 C
26.03.2012 15:27 15,8 C 43 % 1034,5 hPa 0,0 l/m 0,0 km/h (0 Bft) O 90 3,3 C 15,8 C
26.03.2012 15:32 15,9 C 43 % 1034,5 hPa 0,0 l/m 0,0 km/h (0 Bft) NW 315 3,3 C 15,9 C
26.03.2012 15:37 15,9 C 42 % 1034,4 hPa 0,0 l/m 2,9 km/h (1 Bft) O-NO 67 3,0 C 15,9 C
26.03.2012 15:42 16,1 C 42 % 1034,4 hPa 0,0 l/m 3,2 km/h (1 Bft) NW 315 3,2 C 16,1 C
26.03.2012 15:47 16,1 C 42 % 1034,4 hPa 0,0 l/m 4,0 km/h (1 Bft) N-NW 337 3,2 C 16,1 C
26.03.2012 15:52 16,2 C 43 % 1034,4 hPa 0,0 l/m 4,7 km/h (1 Bft) N 360 3,6 C 16,2 C
26.03.2012 15:57 16,4 C 43 % 1034,2 hPa 0,0 l/m 0,0 km/h (0 Bft) N 360 3,8 C 16,4 C
26.03.2012 16:02 16,4 C 42 % 1034,2 hPa 0,0 l/m 2,9 km/h (1 Bft) N 360 3,5 C 16,4 C
26.03.2012 16:07 16,4 C 43 % 1034,2 hPa 0,0 l/m 4,7 km/h (1 Bft) NW 315 3,8 C 16,4 C
26.03.2012 16:12 16,5 C 43 % 1034,2 hPa 0,0 l/m 6,5 km/h (2 Bft) W-NW 292 3,9 C 16,5 C
26.03.2012 16:17 16,5 C 42 % 1034,2 hPa 0,0 l/m 8,6 km/h (2 Bft) NW 315 3,5 C 16,5 C
26.03.2012 16:22 16,6 C 43 % 1034,1 hPa 0,0 l/m 7,2 km/h (2 Bft) W 270 4,0 C 16,6 C
26.03.2012 16:27 16,6 C 43 % 1034,2 hPa 0,0 l/m 5,0 km/h (1 Bft) W-NW 292 4,0 C 16,6 C
26.03.2012 16:32 16,5 C 42 % 1033,9 hPa 0,0 l/m 3,6 km/h (1 Bft) W-SW 247 3,5 C 16,5 C
26.03.2012 16:37 16,4 C 42 % 1033,9 hPa 0,0 l/m 5,0 km/h (1 Bft) NO 45 3,5 C 16,4 C
26.03.2012 16:42 16,2 C 42 % 1033,8 hPa 0,0 l/m 3,6 km/h (1 Bft) N-NO 22 3,3 C 16,2 C
26.03.2012 16:47 16,1 C 43 % 1033,8 hPa 0,0 l/m 4,0 km/h (1 Bft) W-NW 292 3,5 C 16,1 C
26.03.2012 16:52 16,1 C 43 % 1033,9 hPa 0,0 l/m 1,8 km/h (1 Bft) N-NO 22 3,5 C 16,1 C
26.03.2012 16:57 16,1 C 42 % 1033,9 hPa 0,0 l/m 4,0 km/h (1 Bft) N-NW 337 3,2 C 16,1 C
26.03.2012 17:02 15,9 C 43 % 1033,9 hPa 0,0 l/m 1,8 km/h (1 Bft) W-NW 292 3,3 C 15,9 C
26.03.2012 17:07 16,1 C 43 % 1033,8 hPa 0,0 l/m 2,9 km/h (1 Bft) N-NO 22 3,5 C 16,1 C
26.03.2012 17:12 16,1 C 44 % 1033,8 hPa 0,0 l/m 4,7 km/h (1 Bft) W-NW 292 3,8 C 16,1 C
26.03.2012 17:17 16,2 C 44 % 1033,7 hPa 0,0 l/m 2,9 km/h (1 Bft) W-NW 292 3,9 C 16,2 C
26.03.2012 17:22 16,1 C 43 % 1033,7 hPa 0,0 l/m 1,8 km/h (1 Bft) NO 45 3,5 C 16,1 C
26.03.2012 17:27 15,9 C 43 % 1033,8 hPa 0,0 l/m 1,8 km/h (1 Bft) NW 315 3,3 C 15,9 C
26.03.2012 17:32 15,9 C 44 % 1033,7 hPa 0,0 l/m 2,5 km/h (1 Bft) W 270 3,7 C 15,9 C
26.03.2012 17:37 15,9 C 45 % 1033,6 hPa 0,0 l/m 5,4 km/h (1 Bft) W-NW 292 4,0 C 15,9 C
26.03.2012 17:42 15,9 C 46 % 1033,4 hPa 0,0 l/m 2,5 km/h (1 Bft) W 270 4,3 C 15,9 C
26.03.2012 17:47 15,9 C 46 % 1033,5 hPa 0,0 l/m 5,8 km/h (2 Bft) NW 315 4,3 C 15,9 C
26.03.2012 17:52 16,1 C 46 % 1033,4 hPa 0,0 l/m 2,9 km/h (1 Bft) W 270 4,5 C 16,1 C
26.03.2012 17:57 16,1 C 45 % 1033,4 hPa 0,0 l/m 1,4 km/h (1 Bft) W-NW 292 4,2 C 16,1 C
26.03.2012 18:02 16,1 C 45 % 1033,4 hPa 0,0 l/m 1,1 km/h (1 Bft) W-NW 292 4,2 C 16,1 C
26.03.2012 18:07 16,1 C 45 % 1033,5 hPa 0,0 l/m 0,0 km/h (0 Bft) W-NW 292 4,2 C 16,1 C
26.03.2012 18:12 16,1 C 44 % 1033,3 hPa 0,0 l/m 0,0 km/h (0 Bft) N 360 3,8 C 16,1 C
26.03.2012 18:17 15,9 C 44 % 1033,3 hPa 0,0 l/m 2,5 km/h (1 Bft) N-NO 22 3,7 C 15,9 C
26.03.2012 18:22 15,7 C 43 % 1033,3 hPa 0,0 l/m 2,5 km/h (1 Bft) NO 45 3,2 C 15,7 C
26.03.2012 18:27 15,5 C 43 % 1033,3 hPa 0,0 l/m 0,0 km/h (0 Bft) N 360 3,0 C 15,5 C
26.03.2012 18:32 15,4 C 44 % 1033,4 hPa 0,0 l/m 0,0 km/h (0 Bft) N-NW 337 3,2 C 15,4 C
26.03.2012 18:37 15,3 C 45 % 1033,3 hPa 0,0 l/m 0,0 km/h (0 Bft) NW 315 3,4 C 15,3 C
26.03.2012 18:42 15,2 C 46 % 1033,3 hPa 0,0 l/m 1,1 km/h (1 Bft) W-NW 292 3,7 C 15,2 C
26.03.2012 18:47 15,0 C 47 % 1033,3 hPa 0,0 l/m 0,0 km/h (0 Bft) W-NW 292 3,8 C 15,0 C
26.03.2012 18:52 14,9 C 47 % 1033,3 hPa 0,0 l/m 0,0 km/h (0 Bft) W-NW 292 3,7 C 14,9 C
26.03.2012 18:57 14,9 C 48 % 1033,1 hPa 0,0 l/m 0,0 km/h (0 Bft) W-NW 292 4,0 C 14,9 C
26.03.2012 19:02 14,9 C 48 % 1033,1 hPa 0,0 l/m 0,0 km/h (0 Bft) W-NW 292 4,0 C 14,9 C
26.03.2012 19:07 14,8 C 48 % 1033,1 hPa 0,0 l/m 0,0 km/h (0 Bft) W-NW 292 3,9 C 14,8 C
26.03.2012 19:12 14,6 C 49 % 1033,1 hPa 0,0 l/m 0,0 km/h (0 Bft) W-NW 292 4,0 C 14,6 C
26.03.2012 19:17 14,5 C 49 % 1033,1 hPa 0,0 l/m 0,0 km/h (0 Bft) W-NW 292 3,9 C 14,5 C
26.03.2012 19:22 14,3 C 49 % 1033,2 hPa 0,0 l/m 0,0 km/h (0 Bft) W-NW 292 3,7 C 14,3 C
26.03.2012 19:27 14,2 C 50 % 1033,2 hPa 0,0 l/m 0,0 km/h (0 Bft) W-NW 292 3,9 C 14,2 C
26.03.2012 19:32 14,1 C 50 % 1033,2 hPa 0,0 l/m 0,0 km/h (0 Bft) W-NW 292 3,8 C 14,1 C
26.03.2012 19:37 13,9 C 51 % 1033,2 hPa 0,0 l/m 0,0 km/h (0 Bft) W-NW 292 3,9 C 13,9 C
26.03.2012 19:42 13,8 C 51 % 1033,2 hPa 0,0 l/m 0,0 km/h (0 Bft) W-NW 292 3,8 C 13,8 C
26.03.2012 19:47 13,6 C 52 % 1033,1 hPa 0,0 l/m 0,0 km/h (0 Bft) W-NW 292 3,9 C 13,6 C
26.03.2012 19:52 13,5 C 52 % 1033,3 hPa 0,0 l/m 0,0 km/h (0 Bft) W-NW 292 3,8 C 13,5 C
26.03.2012 19:57 13,3 C 53 % 1033,2 hPa 0,0 l/m 0,0 km/h (0 Bft) W-NW 292 3,9 C 13,3 C
26.03.2012 20:02 13,2 C 53 % 1033,2 hPa 0,0 l/m 0,0 km/h (0 Bft) W-NW 292 3,8 C 13,2 C
26.03.2012 20:07 13,0 C 54 % 1033,1 hPa 0,0 l/m 0,0 km/h (0 Bft) W-NW 292 3,9 C 13,0 C
26.03.2012 20:12 12,9 C 55 % 1033,1 hPa 0,0 l/m 0,0 km/h (0 Bft) W-NW 292 4,1 C 12,9 C
26.03.2012 20:17 12,8 C 55 % 1033,2 hPa 0,0 l/m 0,0 km/h (0 Bft) W-NW 292 4,0 C 12,8 C
26.03.2012 20:22 12,6 C 55 % 1033,1 hPa 0,0 l/m 2,2 km/h (1 Bft) W-NW 292 3,8 C 12,6 C
26.03.2012 20:27 12,4 C 56 % 1033,1 hPa 0,0 l/m 0,0 km/h (0 Bft) W-NW 292 3,9 C 12,4 C
26.03.2012 20:32 12,2 C 56 % 1033,2 hPa 0,0 l/m 0,0 km/h (0 Bft) W-NW 292 3,7 C 12,2 C
26.03.2012 20:37 12,0 C 56 % 1033,2 hPa 0,0 l/m 1,1 km/h (1 Bft) W-NW 292 3,5 C 12,0 C
26.03.2012 20:42 11,9 C 56 % 1033,3 hPa 0,0 l/m 0,0 km/h (0 Bft) W-NW 292 3,4 C 11,9 C
26.03.2012 20:47 11,7 C 57 % 1033,2 hPa 0,0 l/m 0,0 km/h (0 Bft) W-NW 292 3,5 C 11,7 C
26.03.2012 20:52 11,4 C 57 % 1033,3 hPa 0,0 l/m 0,0 km/h (0 Bft) W-NW 292 3,2 C 11,4 C
26.03.2012 20:57 11,3 C 58 % 1033,3 hPa 0,0 l/m 0,0 km/h (0 Bft) W-NW 292 3,3 C 11,3 C
26.03.2012 21:02 11,2 C 58 % 1033,3 hPa 0,0 l/m 0,0 km/h (0 Bft) W-NW 292 3,2 C 11,2 C
26.03.2012 21:07 11,1 C 59 % 1033,4 hPa 0,0 l/m 0,0 km/h (0 Bft) W-NW 292 3,4 C 11,1 C
26.03.2012 21:12 10,9 C 59 % 1033,3 hPa 0,0 l/m 0,0 km/h (0 Bft) W-NW 292 3,2 C 10,9 C
26.03.2012 21:17 10,7 C 60 % 1033,3 hPa 0,0 l/m 2,5 km/h (1 Bft) W-NW 292 3,3 C 10,7 C
26.03.2012 21:22 10,5 C 61 % 1033,3 hPa 0,0 l/m 3,2 km/h (1 Bft) W-NW 292 3,3 C 10,5 C
26.03.2012 21:27 10,4 C 62 % 1033,5 hPa 0,0 l/m 4,3 km/h (1 Bft) W-NW 292 3,4 C 10,4 C
26.03.2012 21:32 10,4 C 63 % 1033,5 hPa 0,0 l/m 3,6 km/h (1 Bft) W-NW 292 3,7 C 10,4 C
26.03.2012 21:37 10,4 C 64 % 1033,4 hPa 0,0 l/m 2,9 km/h (1 Bft) NW 315 3,9 C 10,4 C
26.03.2012 21:42 10,2 C 64 % 1033,5 hPa 0,0 l/m 3,6 km/h (1 Bft) NW 315 3,7 C 10,2 C
26.03.2012 21:47 10,1 C 65 % 1033,6 hPa 0,0 l/m 2,5 km/h (1 Bft) NW 315 3,8 C 10,1 C
26.03.2012 21:52 10,1 C 65 % 1033,4 hPa 0,0 l/m 6,5 km/h (2 Bft) NW 315 3,8 C 10,1 C
26.03.2012 21:57 9,9 C 66 % 1033,5 hPa 0,0 l/m 3,6 km/h (1 Bft) NW 315 3,9 C 9,9 C
26.03.2012 22:02 9,9 C 66 % 1033,4 hPa 0,0 l/m 2,9 km/h (1 Bft) W-NW 292 3,9 C 9,9 C
26.03.2012 22:07 9,9 C 67 % 1033,4 hPa 0,0 l/m 5,0 km/h (1 Bft) W-NW 292 4,1 C 9,6 C
26.03.2012 22:12 9,8 C 67 % 1033,3 hPa 0,0 l/m 2,9 km/h (1 Bft) W 270 4,0 C 9,8 C
26.03.2012 22:17 9,8 C 68 % 1033,2 hPa 0,0 l/m 5,0 km/h (1 Bft) W-NW 292 4,2 C 9,5 C
26.03.2012 22:22 9,8 C 68 % 1033,2 hPa 0,0 l/m 3,6 km/h (1 Bft) W-NW 292 4,2 C 9,8 C
26.03.2012 22:27 9,8 C 68 % 1033,2 hPa 0,0 l/m 3,2 km/h (1 Bft) W-NW 292 4,2 C 9,8 C
26.03.2012 22:32 9,8 C 68 % 1033,2 hPa 0,0 l/m 3,6 km/h (1 Bft) W-NW 292 4,2 C 9,8 C
26.03.2012 22:37 9,6 C 68 % 1033,3 hPa 0,0 l/m 4,3 km/h (1 Bft) W-NW 292 4,0 C 9,6 C
26.03.2012 22:42 9,6 C 69 % 1033,2 hPa 0,0 l/m 2,5 km/h (1 Bft) W-NW 292 4,2 C 9,6 C
26.03.2012 22:47 9,5 C 69 % 1033,3 hPa 0,0 l/m 2,2 km/h (1 Bft) W-NW 292 4,1 C 9,5 C
26.03.2012 22:52 9,5 C 69 % 1033,3 hPa 0,0 l/m 0,0 km/h (0 Bft) W-NW 292 4,1 C 9,5 C
26.03.2012 22:57 9,4 C 69 % 1033,2 hPa 0,0 l/m 0,0 km/h (0 Bft) W-NW 292 4,0 C 9,4 C
26.03.2012 23:02 9,3 C 70 % 1033,1 hPa 0,0 l/m 4,0 km/h (1 Bft) NW 315 4,1 C 9,3 C
26.03.2012 23:07 9,1 C 70 % 1033,2 hPa 0,0 l/m 2,9 km/h (1 Bft) NW 315 3,9 C 9,1 C
26.03.2012 23:12 9,0 C 70 % 1033,2 hPa 0,0 l/m 0,0 km/h (0 Bft) W-NW 292 3,8 C 9,0 C
26.03.2012 23:17 8,9 C 70 % 1033,3 hPa 0,0 l/m 2,5 km/h (1 Bft) W-NW 292 3,7 C 8,9 C
26.03.2012 23:22 8,9 C 71 % 1033,2 hPa 0,0 l/m 1,4 km/h (1 Bft) W-NW 292 3,9 C 8,9 C
26.03.2012 23:27 8,9 C 71 % 1033,1 hPa 0,0 l/m 2,2 km/h (1 Bft) NW 315 3,9 C 8,9 C
26.03.2012 23:32 8,8 C 71 % 1033,2 hPa 0,0 l/m 0,0 km/h (0 Bft) NW 315 3,8 C 8,8 C
26.03.2012 23:37 8,8 C 72 % 1033,1 hPa 0,0 l/m 0,0 km/h (0 Bft) W-NW 292 4,0 C 8,8 C
26.03.2012 23:42 8,8 C 72 % 1033,3 hPa 0,0 l/m 0,0 km/h (0 Bft) W-NW 292 4,0 C 8,8 C
26.03.2012 23:47 8,8 C 72 % 1033,2 hPa 0,0 l/m 0,0 km/h (0 Bft) W-NW 292 4,0 C 8,8 C
26.03.2012 23:52 8,8 C 72 % 1033,2 hPa 0,0 l/m 0,0 km/h (0 Bft) W-NW 292 4,0 C 8,8 C
26.03.2012 23:57 8,7 C 72 % 1033,3 hPa 0,0 l/m 0,0 km/h (0 Bft) W-NW 292 3,9 C 8,7 C
_ Min-Zeit 08:02 15:22 18:57 - 00:17 - - 07:52 08:07
Minimum _ 1,4 C 42 % 1033,1 hPa - 0,0 km/h (0 Bft) - - -0,7 C 0,1 C
_ Max-Zeit 16:22 09:57 10:17 00:02 13:17 - - 13:27 16:22
Maximum _ 16,6 C 89 % 1036,5 hPa 0,0 l/m 11,9 km/h
SW (2 Bft)
- - 7,0 C 16,6 C
Durchschnitt _ 9,3 C 69 % 1034,6 hPa #0,0 l/m 2,2 km/h (1 Bft) O-SO - 3,4 C 9,3 C
(c) by David Heller